Latest Weather Observations for Giles*

IDD60801

Issued at 6:01 am CST Sunday 1 March 2015 (issued every 30 minutes, with the page automatically refreshed every 10 minutes)

About weather observations | Map of weather stations | Latest weather observations for NT | Other Formats
Station Details ID: 013017 Name: GILES METEOROLOGICAL OFFICE Lat: -25.03 Lon: 128.30 Height: 598.0 m
Data from the previous 72 hours. | See also: Recent months at Giles*

* Giles observations are collected in the South Australia time zone, which includes daylight saving in the summer period. Therefore, Rain since 9am value is with respect to South Australia local time.

Date/Time
CST
Temp
°C
App
Temp
°C
Dew
Point
Rel
Hum
%
Delta-T
°C
Wind Press
QNH
hPa
Press
MSL
hPa
Rain
since 9 am
mm
Dir
 
Spd
km/h
Gust
km/h
Spd
kts
Gust
kts
01/05:30am 24.2 23.4 19.2 73 3.3 SE 22 32 12 17 1011.1 1006.4 1.4
01/05:00am 24.2 24.7 21.1 83 2.1 SSE 20 26 11 14 1010.9 1006.2 1.4
01/04:30am 24.2 25.2 21.7 86 1.7 SSE 19 22 10 12 1010.8 1006.0 1.4
01/04:00am 23.9 25.4 22.0 89 1.3 SSE 17 19 9 10 1010.7 1005.9 1.4
01/03:30am 23.7 25.3 22.2 91 1.0 SSE 17 22 9 12 1010.7 1005.9 1.4
01/03:00am 23.7 25.0 21.6 88 1.4 SE 17 22 9 12 1010.6 1005.8 1.4
01/02:30am 23.8 24.7 21.6 87 1.5 SE 19 24 10 13 1010.9 1006.2 1.4
01/02:00am 23.8 25.9 21.7 88 1.4 SE 13 17 7 9 1011.6 1006.9 1.4
01/01:30am 23.9 25.9 21.5 86 1.6 ESE 13 17 7 9 1011.7 1007.0 1.4
01/01:00am 23.7 25.6 21.3 86 1.6 ESE 13 15 7 8 1011.8 1007.1 1.4
01/12:30am 23.9 26.1 21.8 88 1.4 SE 13 15 7 8 1012.1 1007.3 1.4
01/12:00am 24.6 27.6 21.3 82 2.2 ESE 7 11 4 6 1012.5 1007.8 1.4
 
Date/Time
CST
Temp
°C
App
Temp
°C
Dew
Point
Rel
Hum
%
Delta-T
°C
Wind Press
QNH
hPa
Press
MSL
hPa
Rain
since 9 am
mm
Dir
 
Spd
km/h
Gust
km/h
Spd
kts
Gust
kts
28/11:30pm 24.3 26.4 20.9 81 2.3 E 11 17 6 9 1013.0 1008.3 1.2
28/11:00pm 23.8 23.1 21.1 85 1.8 NNE 26 39 14 21 1013.8 1009.0 1.2
28/10:30pm 23.8 23.6 22.0 90 1.2 N 26 39 14 21 1014.0 1009.3 1.2
28/10:00pm 24.1 24.5 22.5 91 1.1 NNE 24 35 13 19 1014.1 1009.4 1.2
28/09:00pm 25.3 23.8 21.0 77 2.9 NNE 30 43 16 23 1012.7 1008.0 0.0
28/08:30pm 26.2 22.6 20.2 69 4.0 NE 39 59 21 32 1011.7 1007.0 0.0
28/08:23pm 26.9 25.0 20.2 66 4.5 ENE 30 52 16 28 1011.3 1006.6 0.0
28/08:18pm 27.9 25.9 20.0 62 5.3 E 30 39 16 21 1011.4 1006.7 0.0
28/08:00pm 32.9 28.8 15.9 36 10.9 SSE 32 46 17 25 1010.3 1005.5 0.0
28/07:30pm 34.2 31.0 15.3 32 12.1 SSE 26 35 14 19 1009.2 1004.4 0.0
28/07:00pm 34.7 31.4 14.9 30 12.6 S 26 35 14 19 1008.7 1003.9 0.0
28/06:30pm 34.9 32.5 15.4 31 12.5 SSW 22 32 12 17 1008.0 1003.3 0.0
28/06:00pm 33.6 32.7 17.7 38 10.5 ESE 19 26 10 14 1008.1 1003.4 0.0
28/05:30pm 33.4 29.8 17.2 38 10.6 SSE 32 44 17 24 1008.2 1003.5 0.0
28/05:19pm 35.9 32.1 16.7 32 12.6 SSE 32 50 17 27 1007.9 1003.2 0.0
28/05:15pm 34.9 31.9 16.9 34 11.8 S 28 50 15 27 1008.0 1003.3 0.0
28/05:00pm 37.2 35.1 15.2 27 14.2 SSW 20 30 11 16 1007.7 1002.9 0.0
28/04:47pm 36.0 32.2 14.7 28 13.6 SW 28 46 15 25 1007.8 1003.1 0.0
28/04:30pm 37.8 34.3 14.5 25 14.9 SW 26 43 14 23 1007.8 1003.1 0.0
28/04:00pm 37.3 35.2 15.1 26 14.3 SW 20 33 11 18 1007.9 1003.2 0.0
28/03:00pm 36.6 35.3 15.8 29 13.5 SSW 17 28 9 15 1008.5 1003.7 0.0
28/02:30pm 36.4 34.8 16.1 30 13.2 S 19 37 10 20 1008.8 1004.0 0.0
28/02:00pm 35.3 34.5 17.0 33 12.0 SSE 17 32 9 17 1009.2 1004.4 0.0
28/01:30pm 34.6 33.9 17.4 36 11.3 SSE 17 32 9 17 1009.7 1005.0 0.0
28/01:00pm 34.9 33.7 17.5 35 11.5 SSE 20 32 11 17 1010.3 1005.5 0.0
28/12:30pm 33.6 32.5 17.8 39 10.4 SSE 20 32 11 17 1010.9 1006.2 0.0
28/12:00pm 32.2 30.9 18.1 43 9.3 SSE 22 32 12 17 1011.5 1006.8 0.0
28/11:30am 31.7 30.3 18.8 46 8.6 SSE 24 32 13 17 1012.1 1007.3 0.0
28/10:30am 29.6 27.9 18.9 52 7.1 SE 26 37 14 20 1012.3 1007.5 0.0
28/10:00am 28.6 27.6 18.9 55 6.4 SSE 22 33 12 18 1012.7 1008.0 0.0
28/09:30am 29.4 26.4 18.6 52 7.1 SSE 32 43 17 23 1012.4 1007.6 0.0
28/09:20am 29.7 27.5 18.8 52 7.2 SSE 28 43 15 23 1012.1 1007.3 0.0
28/09:00am 27.7 24.8 18.9 58 5.8 SSE 32 43 17 23 1012.2 1007.4 0.0
28/08:39am 27.7 24.8 18.9 58 5.8 S 32 50 17 27 1011.8 1007.1 0.0
28/08:30am 28.0 25.3 19.2 58 5.8 S 32 43 17 23 1011.6 1006.9 0.0
28/08:00am 28.2 24.8 19.1 57 6.0 S 35 50 19 27 1011.0 1006.3 0.0
28/07:54am 28.4 25.7 19.2 57 6.1 S 32 50 17 27 1010.9 1006.2 0.0
28/07:48am 28.8 26.6 18.8 54 6.6 SSW 28 44 15 24 1010.8 1006.0 0.0
28/07:30am 28.8 29.0 19.3 56 6.3 SSW 17 24 9 13 1010.4 1005.6 0.0
28/07:00am 28.6 28.5 19.9 59 5.8 SW 20 28 11 15 1009.8 1005.1 0.0
28/06:30am 28.5 29.8 20.2 60 5.6 SW 13 19 7 10 1009.4 1004.7 0.0
28/06:00am 28.6 30.4 19.6 58 6.0 W 9 13 5 7 1009.0 1004.2 0.0
28/05:30am 28.7 30.2 19.0 55 6.4 WSW 9 13 5 7 1008.5 1003.7 0.0
28/05:00am 28.9 30.7 18.8 54 6.7 W 7 11 4 6 1008.2 1003.5 0.0
28/04:30am 29.2 30.1 18.4 52 7.1 WNW 11 17 6 9 1008.2 1003.5 0.0
28/04:00am 29.5 29.8 18.0 50 7.5 WSW 13 17 7 9 1008.1 1003.4 0.0
28/03:30am 29.6 31.0 17.8 49 7.7 WNW 7 11 4 6 1008.2 1003.5 0.0
28/03:00am 29.6 32.2 17.4 47 7.9 CALM 0 0 0 0 1008.1 1003.4 0.0
28/02:30am 29.8 30.8 16.9 45 8.3 WNW 7 11 4 6 1008.2 1003.5 0.0
28/02:00am 29.8 29.9 16.6 45 8.5 WNW 11 15 6 8 1008.8 1004.0 0.0
28/01:30am 29.3 30.2 16.5 46 8.2 NW 7 9 4 5 1008.9 1004.1 0.0
28/01:00am 29.4 30.3 16.2 44 8.4 NW 6 7 3 4 1009.2 1004.4 0.0
28/12:30am 30.1 29.8 15.4 41 9.3 WNW 11 15 6 8 1009.4 1004.7 0.0
28/12:00am 30.3 30.5 14.6 38 9.8 NW 7 11 4 6 1009.5 1004.8 0.0
 
Date/Time
CST
Temp
°C
App
Temp
°C
Dew
Point
Rel
Hum
%
Delta-T
°C
Wind Press
QNH
hPa
Press
MSL
hPa
Rain
since 9 am
mm
Dir
 
Spd
km/h
Gust
km/h
Spd
kts
Gust
kts
27/11:30pm 30.0 29.6 15.2 40 9.3 NNW 11 11 6 6 1009.5 1004.8 0.0
27/11:00pm 30.1 31.0 15.0 40 9.5 NNW 4 7 2 4 1009.5 1004.8 0.0
27/10:30pm 31.4 32.2 15.9 39 9.9 WSW 6 7 3 4 1009.5 1004.8 0.0
27/10:00pm 31.8 32.4 15.2 36 10.5 WSW 6 7 3 4 1009.4 1004.7 0.0
27/09:30pm 32.1 32.4 15.0 35 10.8 W 7 9 4 5 1009.3 1004.5 0.0
27/09:00pm 32.6 31.8 14.0 32 11.6 WSW 11 13 6 7 1008.9 1004.1 0.0
27/08:30pm 32.9 32.3 13.4 30 12.1 WSW 9 11 5 6 1008.6 1003.8 0.0
27/08:00pm 33.7 32.6 13.0 28 12.8 WNW 11 17 6 9 1008.0 1003.3 0.0
27/07:30pm 34.5 32.0 12.3 26 13.6 WNW 17 24 9 13 1007.7 1002.9 0.0
27/07:00pm 34.8 33.2 12.8 26 13.6 WSW 13 17 7 9 1007.4 1002.6 0.0
27/06:30pm 34.9 32.0 13.0 26 13.6 WSW 20 28 11 15 1007.3 1002.5 0.0
27/06:00pm 35.1 32.6 14.0 28 13.3 W 20 30 11 16 1007.3 1002.5 0.0
27/05:30pm 35.8 33.1 13.4 26 14.0 W 20 30 11 16 1007.4 1002.6 0.0
27/05:00pm 36.3 32.2 11.3 22 15.2 WNW 24 35 13 19 1007.1 1002.3 0.0
27/04:30pm 37.1 33.5 12.9 23 15.1 NNW 24 33 13 18 1007.0 1002.2 0.0
27/04:00pm 37.4 34.4 12.7 22 15.4 NW 20 28 11 15 1007.3 1002.5 0.0
27/03:30pm 38.8 36.4 12.6 21 16.4 W 17 32 9 17 1007.3 1002.5 0.0
27/03:00pm 37.8 36.3 13.1 23 15.5 WNW 13 26 7 14 1007.6 1002.8 0.0
27/02:30pm 38.4 35.4 12.4 21 16.2 W 20 30 11 16 1007.9 1003.2 0.0
27/02:00pm 37.8 36.0 13.3 23 15.4 NNW 15 24 8 13 1008.5 1003.7 0.0
27/01:30pm 36.7 34.4 13.0 24 14.8 W 17 28 9 15 1009.0 1004.2 0.0
27/01:00pm 35.5 34.0 13.2 26 13.9 WNW 13 20 7 11 1009.5 1004.8 0.0
27/12:30pm 35.3 33.8 13.1 26 13.8 W 13 20 7 11 1010.3 1005.5 0.0
27/12:00pm 33.6 32.8 15.0 32 11.8 WSW 13 20 7 11 1010.8 1006.0 0.0
27/11:30am 33.2 33.8 17.7 39 10.2 SW 11 17 6 9 1011.2 1006.5 0.0
27/11:00am 31.4 30.4 16.5 40 9.6 SW 17 28 9 15 1011.6 1006.9 0.0
27/10:30am 30.6 29.5 17.7 46 8.4 SW 20 32 11 17 1012.2 1007.4 0.0
27/10:00am 29.0 27.9 18.7 53 6.8 WSW 22 32 12 17 1012.6 1007.9 0.0
27/09:30am 27.4 26.0 18.9 59 5.6 WSW 24 33 13 18 1012.6 1007.9 0.0
27/09:00am 26.9 25.3 19.2 62 5.1 W 26 39 14 21 1012.5 1007.8 0.0
27/08:30am 26.7 26.1 17.5 57 5.9 WNW 17 26 9 14 1012.1 1007.3 0.0
27/08:00am 26.7 25.2 16.4 53 6.5 WNW 19 26 10 14 1011.8 1007.1 0.0
27/07:30am 26.6 26.1 15.9 51 6.7 WNW 13 20 7 11 1011.2 1006.5 0.0
27/07:00am 26.7 25.7 14.5 47 7.5 WNW 13 19 7 10 1010.9 1006.2 0.0
27/06:30am 28.1 27.2 12.6 38 9.3 SSW 9 13 5 7 1009.8 1005.1 0.0
27/06:00am 27.5 25.6 14.1 43 8.2 SSW 17 22 9 12 1009.1 1004.3 0.0
27/05:30am 26.6 26.7 17.4 57 5.9 SW 13 20 7 11 1008.9 1004.1 0.0
27/05:00am 28.4 28.0 16.1 47 7.8 SW 13 26 7 14 1008.8 1004.0 0.0
27/04:30am 29.4 30.4 14.2 39 9.4 NW 2 6 1 3 1007.9 1003.2 0.0
27/04:00am 30.4 28.4 10.0 28 11.9 NE 11 15 6 8 1008.0 1003.3 0.0
27/03:30am 30.1 27.5 10.7 30 11.4 ESE 15 20 8 11 1007.7 1002.9 0.0
27/03:00am 29.8 27.8 11.5 32 10.9 E 13 17 7 9 1008.2 1003.5 0.0
27/02:30am 29.9 28.4 11.8 32 10.8 SE 11 17 6 9 1008.2 1003.5 0.0
27/02:00am 29.8 27.9 13.1 36 10.2 SE 15 19 8 10 1008.6 1003.8 0.0
27/01:30am 29.0 28.9 16.1 45 8.2 SE 11 15 6 8 1008.9 1004.1 0.0
27/01:00am 28.3 29.0 17.1 50 7.2 SE 9 11 5 6 1009.2 1004.4 0.0
27/12:30am 28.2 29.4 17.4 52 7.0 SE 7 9 4 5 1009.6 1004.9 0.0
27/12:00am 28.4 29.5 17.0 50 7.3 E 7 9 4 5 1009.7 1005.0 0.0
 
Date/Time
CST
Temp
°C
App
Temp
°C
Dew
Point
Rel
Hum
%
Delta-T
°C
Wind Press
QNH
hPa
Press
MSL
hPa
Rain
since 9 am
mm
Dir
 
Spd
km/h
Gust
km/h
Spd
kts
Gust
kts
26/11:30pm 27.9 30.5 17.5 53 6.7 CALM 0 0 0 0 1009.9 1005.2 0.0
26/11:00pm 28.4 31.0 17.6 52 7.0 CALM 0 0 0 0 1010.0 1005.3 0.0
26/10:30pm 29.2 30.4 17.3 48 7.7 NW 7 9 4 5 1010.4 1005.6 0.0
26/10:00pm 29.7 30.5 17.4 47 8.0 N 9 11 5 6 1010.4 1005.6 0.0
26/09:30pm 30.3 31.1 17.2 45 8.5 NNW 9 9 5 5 1010.5 1005.7 0.0
26/09:00pm 29.7 31.1 17.7 48 7.8 N 7 11 4 6 1010.0 1005.3 0.0
26/08:30pm 29.2 30.3 18.8 53 6.9 WSW 11 17 6 9 1009.6 1004.9 0.0
26/08:00pm 31.2 30.5 15.4 38 10.0 SW 13 20 7 11 1009.4 1004.7 0.0
26/07:30pm 30.9 29.9 16.6 42 9.2 SW 17 24 9 13 1009.4 1004.7 0.0
26/07:00pm 30.3 29.4 18.3 48 7.9 S 20 30 11 16 1009.4 1004.7 0.0
26/06:30pm 31.4 30.3 17.8 44 8.9 SSW 20 35 11 19 1009.3 1004.5 0.0
26/06:07pm 32.0 28.1 16.5 39 10.0 SSW 32 50 17 27 1008.5 1003.7 0.0
26/06:00pm 31.5 26.7 16.6 40 9.6 SSW 37 52 20 28 1008.1 1003.4 0.0
26/05:34pm 34.7 30.6 13.8 28 13.1 SSW 28 57 15 31 1007.7 1002.9 0.0
26/05:30pm 37.6 33.3 10.7 19 16.3 S 24 33 13 18 1007.4 1002.6 0.0
26/05:00pm 38.0 35.2 11.2 20 16.4 SSE 17 22 9 12 1007.0 1002.2 0.0
26/04:30pm 37.9 36.5 12.3 21 15.9 SE 11 20 6 11 1007.0 1002.2 0.0
26/04:00pm 40.1 38.3 10.7 17 17.9 NW 11 20 6 11 1007.4 1002.6 0.0
26/03:30pm 39.9 38.8 10.8 17 17.8 WNW 7 19 4 10 1007.7 1002.9 0.0
26/03:00pm 39.3 36.1 11.1 18 17.3 N 19 28 10 15 1008.3 1003.6 0.0
26/02:30pm 38.5 37.0 11.8 20 16.5 W 11 22 6 12 1008.9 1004.1 0.0
26/02:00pm 38.6 36.7 11.7 20 16.6 W 13 20 7 11 1009.3 1004.5 0.0
26/01:30pm 38.9 35.5 10.6 18 17.2 N 19 28 10 15 1009.7 1005.0 0.0
26/01:00pm 37.7 35.9 12.2 21 15.8 NNW 13 24 7 13 1010.4 1005.6 0.0
26/12:30pm 37.4 35.8 11.4 21 15.9 N 11 26 6 14 1011.0 1006.3 0.0
26/12:00pm 36.9 34.5 10.2 20 16.0 NNE 13 22 7 12 1011.4 1006.7 0.0
26/11:30am 36.3 33.2 10.2 20 15.6 N 17 28 9 15 1012.0 1007.2 0.0
26/11:00am 37.0 33.4 8.4 17 16.7 NNE 17 30 9 16 1012.4 1007.6 0.0
26/10:30am 35.8 30.8 8.2 18 16.0 NNE 24 30 13 16 1012.4 1007.6 0.0
26/10:00am 35.3 30.0 6.6 17 16.2 NE 24 35 13 19 1012.5 1007.8 0.0
26/09:30am 34.3 27.8 6.4 17 15.6 ENE 30 41 16 22 1012.5 1007.8 0.0
26/09:00am 33.9 28.2 6.6 18 15.3 ENE 26 43 14 23 1012.6 1007.9 0.0
26/08:30am 32.5 27.2 6.6 20 14.4 ENE 24 33 13 18 1012.5 1007.8 0.0
26/08:00am 31.2 27.6 8.3 24 13.0 E 17 24 9 13 1012.6 1007.9 0.0
26/07:30am 29.9 26.4 8.8 26 12.0 ENE 17 24 9 13 1012.4 1007.6 0.0
26/07:00am 29.1 26.7 9.9 30 11.1 ENE 13 17 7 9 1012.1 1007.3 0.0
26/06:30am 29.1 26.7 9.9 30 11.1 E 13 19 7 10 1011.6 1006.9 0.0
26/06:00am 29.2 26.5 10.3 31 11.0 E 15 20 8 11 1011.2 1006.5 0.0
26/05:30am 29.6 26.0 9.7 29 11.5 E 19 26 10 14 1011.1 1006.4 0.0

Other Formats:

Comma delimited format used in spreadsheet applications
http://www.bom.gov.au/fwo/IDD60801/IDD60801.94461.axf

JavaScript Object Notation format (JSON) in row-major order
http://www.bom.gov.au/fwo/IDD60801/IDD60801.94461.json